Time;durP1;ratioP1;P1;durP2;ratioP2;P2;SDS_P1;SDS_P2;PMS_P1;PMS_P2;Temp;Humidity;BMP_temperature;BMP_pressure;BME280_temperature;BME280_humidity;BME280_pressure;Samples;Min_cycle;Max_cycle;Signal;HPM_P1;HPM_P2
2022/12/10 00:00:37;;;;;;;74.77;40.57;;;;;;;;;;5000804;28;20211;-81
2022/12/10 00:03:03;;;;;;;67.20;38.27;;;;;;;;;;5016886;28;20189;-81
2022/12/10 00:05:29;;;;;;;72.53;39.27;;;;;;;;;;5016756;28;20199;-81
2022/12/10 00:07:55;;;;;;;71.40;38.33;;;;;;;;;;5016805;28;20169;-81
2022/12/10 00:10:21;;;;;;;70.23;38.53;;;;;;;;;;5000576;28;20239;-80
2022/12/10 00:12:47;;;;;;;71.00;38.40;;;;;;;;;;5000383;28;20187;-80
2022/12/10 00:15:13;;;;;;;72.17;39.57;;;;;;;;;;5034176;28;20260;-80
2022/12/10 00:17:39;;;;;;;77.57;41.00;;;;;;;;;;5000758;28;20210;-80
2022/12/10 00:20:06;;;;;;;72.47;40.30;;;;;;;;;;5016668;28;20187;-80
2022/12/10 00:22:32;;;;;;;75.60;41.13;;;;;;;;;;5000366;28;20283;-80
2022/12/10 00:24:58;;;;;;;71.63;40.33;;;;;;;;;;5000391;28;20185;-80
2022/12/10 00:27:23;;;;;;;70.63;39.90;;;;;;;;;;5000795;28;20208;-80
2022/12/10 00:29:49;;;;;;;76.63;41.13;;;;;;;;;;5000372;28;20274;-80
2022/12/10 00:32:15;;;;;;;77.97;40.73;;;;;;;;;;4996207;28;20251;-80
2022/12/10 00:34:41;;;;;;;74.00;39.97;;;;;;;;;;4977576;28;20185;-80
2022/12/10 00:37:07;;;;;;;70.20;38.47;;;;;;;;;;4977124;28;20201;-80
2022/12/10 00:39:33;;;;;;;72.53;38.00;;;;;;;;;;4989232;28;20182;-81
2022/12/10 00:42:00;;;;;;;82.45;48.38;;;;;;;;;;4957526;28;20460;-81
2022/12/10 00:44:26;;;;;;;87.72;52.47;;;;;;;;;;4965281;28;20434;-80
2022/12/10 00:46:52;;;;;;;75.97;40.47;;;;;;;;;;4979731;28;20221;-80
2022/12/10 00:49:18;;;;;;;76.90;39.37;;;;;;;;;;5004716;28;20182;-80
2022/12/10 00:51:44;;;;;;;69.87;37.23;;;;;;;;;;4977469;28;20190;-80
2022/12/10 00:54:11;;;;;;;72.50;37.23;;;;;;;;;;4977952;28;20178;-80
2022/12/10 00:56:37;;;;;;;66.73;36.83;;;;;;;;;;4998799;28;20213;-80
2022/12/10 00:59:03;;;;;;;75.83;37.70;;;;;;;;;;4982955;28;20198;-80
2022/12/10 01:01:34;;;;;;;75.47;39.03;;;;;;;;;;4979149;28;20179;-80
2022/12/10 01:04:02;;;;;;;77.23;38.77;;;;;;;;;;4977993;28;20189;-80
2022/12/10 01:06:30;;;;;;;73.13;37.63;;;;;;;;;;4977718;28;20206;-80
2022/12/10 01:08:57;;;;;;;84.88;50.10;;;;;;;;;;4977051;28;20426;-80
2022/12/10 01:11:25;;;;;;;90.03;53.08;;;;;;;;;;4961946;28;20410;-80
2022/12/10 01:13:51;;;;;;;74.17;39.50;;;;;;;;;;4977769;28;20182;-80
2022/12/10 01:16:19;;;;;;;71.60;38.37;;;;;;;;;;4977599;28;20210;-80
2022/12/10 01:18:45;;;;;;;70.53;38.53;;;;;;;;;;4977593;28;20186;-80
2022/12/10 01:21:12;;;;;;;72.50;38.77;;;;;;;;;;4977357;28;20218;-80
2022/12/10 01:23:39;;;;;;;73.80;37.47;;;;;;;;;;4987034;28;20190;-80
2022/12/10 01:26:09;;;;;;;70.83;37.43;;;;;;;;;;4997318;28;20206;-80
2022/12/10 01:28:36;;;;;;;66.77;36.17;;;;;;;;;;4998072;28;20182;-82
2022/12/10 01:31:04;;;;;;;69.87;36.50;;;;;;;;;;4998812;28;20222;-82
2022/12/10 01:33:30;;;;;;;66.97;37.27;;;;;;;;;;4998038;28;20170;-80
2022/12/10 01:35:57;;;;;;;70.27;37.27;;;;;;;;;;4997948;28;20182;-80
2022/12/10 01:38:23;;;;;;;70.03;38.73;;;;;;;;;;4980746;28;20213;-80
2022/12/10 01:40:49;;;;;;;67.30;36.90;;;;;;;;;;4996797;28;20209;-80
2022/12/10 01:43:16;;;;;;;70.93;36.17;;;;;;;;;;4997414;28;20265;-80
2022/12/10 01:45:42;;;;;;;75.37;36.80;;;;;;;;;;4996399;28;20221;-80
2022/12/10 01:48:08;;;;;;;68.97;36.70;;;;;;;;;;5017339;28;20209;-80
2022/12/10 01:50:34;;;;;;;68.87;36.53;;;;;;;;;;4996047;28;20189;-82
2022/12/10 01:53:00;;;;;;;71.10;37.77;;;;;;;;;;4996868;28;20174;-82
2022/12/10 01:55:53;;;;;;;70.13;36.93;;;;;;;;;;4994181;28;20240;-82
2022/12/10 01:58:19;;;;;;;73.27;37.47;;;;;;;;;;4993846;28;20203;-81
2022/12/10 02:00:56;;;;;;;72.10;37.43;;;;;;;;;;4979919;28;20217;-81
2022/12/10 02:03:29;;;;;;;65.97;35.70;;;;;;;;;;4996030;28;20182;-82
2022/12/10 02:06:01;;;;;;;66.97;36.20;;;;;;;;;;4992237;28;20301;-82
2022/12/10 02:08:47;;;;;;;66.90;36.53;;;;;;;;;;4980177;28;20187;-81
2022/12/10 02:11:14;;;;;;;66.93;35.23;;;;;;;;;;4985744;28;20187;-81
2022/12/10 02:13:41;;;;;;;68.27;36.07;;;;;;;;;;4980282;28;20179;-82
2022/12/10 02:16:07;;;;;;;63.43;35.93;;;;;;;;;;4996750;28;20221;-82
2022/12/10 02:18:40;;;;;;;71.20;36.70;;;;;;;;;;4980483;28;20214;-82
2022/12/10 02:21:12;;;;;;;70.70;35.43;;;;;;;;;;4982913;28;20232;-81
2022/12/10 02:23:40;;;;;;;68.87;35.03;;;;;;;;;;4996154;28;20193;-80
2022/12/10 02:26:13;;;;;;;72.37;37.70;;;;;;;;;;4995683;28;20229;-80
2022/12/10 02:28:49;;;;;;;68.57;38.23;;;;;;;;;;4996534;28;20237;-80
2022/12/10 02:31:18;;;;;;;67.13;36.03;;;;;;;;;;4997199;28;20250;-80
2022/12/10 02:33:46;;;;;;;66.27;36.10;;;;;;;;;;5000754;28;20182;-80
2022/12/10 02:36:14;;;;;;;70.47;37.47;;;;;;;;;;5017770;28;20199;-80
2022/12/10 02:38:40;;;;;;;64.43;36.13;;;;;;;;;;5017722;28;20173;-80
2022/12/10 02:41:08;;;;;;;66.27;36.27;;;;;;;;;;5018207;28;20177;-80
2022/12/10 02:43:35;;;;;;;68.87;36.90;;;;;;;;;;5019987;28;20180;-80
2022/12/10 02:46:02;;;;;;;67.83;37.33;;;;;;;;;;5001663;28;20243;-80
2022/12/10 02:48:28;;;;;;;66.57;37.07;;;;;;;;;;5017957;28;20181;-80
2022/12/10 02:50:54;;;;;;;68.23;35.40;;;;;;;;;;5017595;28;20189;-80
2022/12/10 02:53:20;;;;;;;67.30;37.07;;;;;;;;;;5017658;28;20184;-80
2022/12/10 02:55:56;;;;;;;69.10;38.13;;;;;;;;;;5035902;28;20284;-80
2022/12/10 02:58:22;;;;;;;72.93;38.33;;;;;;;;;;5001251;28;20293;-80
2022/12/10 03:00:58;;;;;;;67.03;37.67;;;;;;;;;;5027707;28;20216;-80
2022/12/10 03:03:32;;;;;;;70.70;37.10;;;;;;;;;;4998302;28;20181;-80
2022/12/10 03:06:18;;;;;;;68.13;35.80;;;;;;;;;;5007735;28;20220;-80
2022/12/10 03:08:44;;;;;;;65.80;35.37;;;;;;;;;;5017458;28;20181;-80
2022/12/10 03:11:15;;;;;;;62.60;35.13;;;;;;;;;;4998953;28;20327;-80
2022/12/10 03:13:50;;;;;;;66.37;36.13;;;;;;;;;;5015551;28;20201;-81
2022/12/10 03:16:17;;;;;;;66.87;35.03;;;;;;;;;;5017207;28;20193;-82
2022/12/10 03:18:44;;;;;;;64.63;35.23;;;;;;;;;;5016363;28;20193;-81
2022/12/10 03:21:10;;;;;;;70.20;37.03;;;;;;;;;;5034944;28;20184;-81
2022/12/10 03:23:39;;;;;;;68.20;36.27;;;;;;;;;;5034638;28;20223;-81
2022/12/10 03:26:05;;;;;;;66.37;37.00;;;;;;;;;;5016038;28;20204;-81
2022/12/10 03:28:38;;;;;;;64.70;35.77;;;;;;;;;;5005180;28;20200;-81
2022/12/10 03:31:04;;;;;;;66.87;36.53;;;;;;;;;;5034706;28;20239;-80
2022/12/10 03:33:31;;;;;;;72.63;38.33;;;;;;;;;;5028767;28;20197;-80
2022/12/10 03:35:57;;;;;;;65.70;37.37;;;;;;;;;;5008026;28;20195;-80
2022/12/10 03:38:23;;;;;;;76.73;38.67;;;;;;;;;;5000669;28;20198;-80
2022/12/10 03:40:49;;;;;;;74.27;38.63;;;;;;;;;;5000024;28;20204;-77
2022/12/10 03:43:15;;;;;;;86.88;45.20;;;;;;;;;;5017504;28;20430;-77
2022/12/10 03:45:41;;;;;;;78.73;41.77;;;;;;;;;;5010186;28;20230;-77
2022/12/10 03:48:07;;;;;;;79.13;40.70;;;;;;;;;;5017168;28;20260;-77
2022/12/10 03:50:33;;;;;;;77.57;40.40;;;;;;;;;;5002934;28;20193;-77
2022/12/10 03:52:59;;;;;;;82.73;38.87;;;;;;;;;;5028919;28;20188;-78
2022/12/10 03:55:25;;;;;;;82.07;41.00;;;;;;;;;;5000507;28;20188;-78
2022/12/10 03:57:51;;;;;;;69.00;36.90;;;;;;;;;;5000414;28;20276;-78
2022/12/10 04:00:17;;;;;;;76.67;39.17;;;;;;;;;;5016764;28;20215;-78
2022/12/10 04:02:43;;;;;;;77.83;39.33;;;;;;;;;;5034209;28;20185;-78
2022/12/10 04:05:10;;;;;;;77.67;40.23;;;;;;;;;;5012879;28;20192;-79
2022/12/10 04:07:36;;;;;;;76.40;39.00;;;;;;;;;;5034356;28;20291;-81
2022/12/10 04:10:02;;;;;;;83.23;40.30;;;;;;;;;;5016599;28;20188;-80
2022/12/10 04:12:28;;;;;;;82.20;40.90;;;;;;;;;;5034530;28;20177;-80
2022/12/10 04:17:39;;;;;;;80.37;41.17;;;;;;;;;;5019233;28;20211;-80
2022/12/10 04:20:05;;;;;;;87.10;40.77;;;;;;;;;;4996288;28;20185;-81
2022/12/10 04:28:00;;;;;;;80.33;39.70;;;;;;;;;;5019246;28;20217;-81
2022/12/10 04:30:26;;;;;;;85.97;43.10;;;;;;;;;;5033727;28;20189;-81
2022/12/10 04:32:52;;;;;;;83.87;40.50;;;;;;;;;;5015946;28;20244;-81
2022/12/10 04:35:18;;;;;;;84.67;41.73;;;;;;;;;;4999862;28;20212;-81
2022/12/10 04:37:44;;;;;;;85.17;41.23;;;;;;;;;;5015451;28;20280;-80
2022/12/10 04:40:10;;;;;;;85.27;42.40;;;;;;;;;;5015937;28;20202;-80
2022/12/10 04:42:36;;;;;;;80.90;41.67;;;;;;;;;;4997031;28;20187;-80
2022/12/10 04:45:02;;;;;;;88.07;42.77;;;;;;;;;;5023822;28;20267;-80
2022/12/10 04:47:28;;;;;;;95.47;44.37;;;;;;;;;;5016022;28;20248;-80
2022/12/10 04:49:55;;;;;;;92.47;43.97;;;;;;;;;;5013903;28;20189;-80
2022/12/10 04:52:21;;;;;;;96.03;44.70;;;;;;;;;;4996885;28;20188;-80
2022/12/10 04:54:47;;;;;;;103.97;46.20;;;;;;;;;;4994667;28;20185;-80
2022/12/10 04:57:13;;;;;;;102.97;47.93;;;;;;;;;;5010056;28;20199;-80
2022/12/10 04:59:39;;;;;;;102.23;46.53;;;;;;;;;;5018335;28;20181;-81
2022/12/10 05:02:06;;;;;;;100.73;47.60;;;;;;;;;;4982262;28;20220;-81
2022/12/10 05:04:32;;;;;;;102.37;47.13;;;;;;;;;;5011023;28;20276;-81
2022/12/10 05:06:58;;;;;;;107.33;49.87;;;;;;;;;;4982816;28;20240;-80
2022/12/10 05:09:24;;;;;;;114.70;49.43;;;;;;;;;;5033773;28;20247;-80
2022/12/10 05:11:50;;;;;;;110.10;48.70;;;;;;;;;;5016250;28;20179;-81
2022/12/10 05:14:16;;;;;;;120.93;50.57;;;;;;;;;;5023586;28;20247;-81
2022/12/10 05:16:42;;;;;;;126.53;49.80;;;;;;;;;;5007907;28;20208;-81
2022/12/10 05:19:09;;;;;;;122.63;50.63;;;;;;;;;;4996323;28;20197;-81
2022/12/10 05:24:19;;;;;;;128.13;50.67;;;;;;;;;;5003529;28;20208;-81
2022/12/10 05:26:46;;;;;;;124.80;50.60;;;;;;;;;;4989431;28;20212;-80
2022/12/10 05:29:13;;;;;;;128.17;51.07;;;;;;;;;;5013181;28;20223;-80
2022/12/10 05:31:39;;;;;;;129.77;50.07;;;;;;;;;;5026620;28;20229;-80
2022/12/10 05:34:07;;;;;;;128.30;52.10;;;;;;;;;;5015643;28;20185;-80
2022/12/10 05:36:33;;;;;;;125.70;50.80;;;;;;;;;;5015586;28;20241;-80
2022/12/10 05:39:00;;;;;;;130.23;52.93;;;;;;;;;;5032788;28;20194;-80
2022/12/10 05:41:29;;;;;;;126.73;50.87;;;;;;;;;;5035864;28;20191;-80
2022/12/10 05:43:56;;;;;;;132.97;50.80;;;;;;;;;;5019535;28;20256;-80
2022/12/10 05:46:23;;;;;;;137.30;53.67;;;;;;;;;;5003578;28;20204;-80
2022/12/10 05:48:50;;;;;;;136.90;52.97;;;;;;;;;;5019495;28;20181;-80
2022/12/10 05:51:21;;;;;;;144.30;54.47;;;;;;;;;;5003169;28;20181;-80
2022/12/10 05:53:47;;;;;;;145.90;55.50;;;;;;;;;;5019350;28;20173;-80
2022/12/10 05:56:15;;;;;;;136.70;53.07;;;;;;;;;;5019187;28;20215;-81
2022/12/10 05:58:42;;;;;;;148.47;54.47;;;;;;;;;;5019532;28;20186;-81
2022/12/10 06:01:09;;;;;;;149.50;54.07;;;;;;;;;;5036923;28;20176;-81
2022/12/10 06:03:35;;;;;;;145.27;54.17;;;;;;;;;;5019464;28;20208;-82
2022/12/10 06:06:01;;;;;;;150.30;56.10;;;;;;;;;;5019451;28;20250;-82
2022/12/10 06:08:27;;;;;;;157.23;57.17;;;;;;;;;;5003222;28;20193;-82
2022/12/10 06:10:53;;;;;;;150.60;55.70;;;;;;;;;;5018787;28;20180;-82
2022/12/10 06:13:20;;;;;;;154.30;55.33;;;;;;;;;;5018845;28;20195;-81
2022/12/10 06:15:46;;;;;;;158.67;54.77;;;;;;;;;;5018702;28;20172;-81
2022/12/10 06:18:12;;;;;;;146.73;53.03;;;;;;;;;;5002706;28;20191;-80
2022/12/10 06:20:39;;;;;;;141.33;53.50;;;;;;;;;;5018842;28;20187;-80
2022/12/10 06:23:05;;;;;;;142.13;53.33;;;;;;;;;;5018890;28;20183;-80
2022/12/10 06:25:31;;;;;;;135.17;52.23;;;;;;;;;;5018733;28;20172;-80
2022/12/10 06:27:57;;;;;;;199.90;56.87;;;;;;;;;;5002321;28;20220;-80
2022/12/10 06:30:23;;;;;;;145.80;55.43;;;;;;;;;;5002233;28;20180;-80
2022/12/10 06:32:49;;;;;;;157.53;53.87;;;;;;;;;;5018471;28;20248;-80
2022/12/10 06:35:15;;;;;;;149.53;54.83;;;;;;;;;;5002304;28;20236;-81
2022/12/10 06:37:41;;;;;;;150.67;54.20;;;;;;;;;;5018782;28;20184;-81
2022/12/10 06:40:07;;;;;;;155.23;54.47;;;;;;;;;;5001964;28;20258;-81
2022/12/10 06:42:33;;;;;;;141.37;52.63;;;;;;;;;;5035933;28;20187;-81
2022/12/10 06:44:59;;;;;;;134.53;51.27;;;;;;;;;;5018269;28;20192;-81
2022/12/10 06:47:25;;;;;;;132.03;52.43;;;;;;;;;;5017656;28;20234;-81
2022/12/10 06:49:51;;;;;;;146.17;52.77;;;;;;;;;;5020557;28;20262;-81
2022/12/10 06:52:17;;;;;;;146.17;53.10;;;;;;;;;;5017732;28;20268;-80
2022/12/10 06:54:43;;;;;;;138.63;51.20;;;;;;;;;;4998229;28;20181;-80
2022/12/10 06:57:10;;;;;;;139.27;51.67;;;;;;;;;;4982373;28;20192;-80
2022/12/10 06:59:36;;;;;;;193.53;51.03;;;;;;;;;;5025202;28;20215;-80
2022/12/10 07:02:02;;;;;;;146.33;48.33;;;;;;;;;;5005556;28;20203;-80
2022/12/10 07:04:28;;;;;;;131.47;48.07;;;;;;;;;;5017358;28;20188;-80
2022/12/10 07:06:54;;;;;;;148.03;47.77;;;;;;;;;;5034778;28;20279;-82
2022/12/10 07:09:20;;;;;;;130.40;48.73;;;;;;;;;;5018783;28;20185;-81
2022/12/10 07:11:46;;;;;;;127.70;49.00;;;;;;;;;;5017639;28;20181;-81
2022/12/10 07:14:14;;;;;;;157.43;49.37;;;;;;;;;;5017108;28;20188;-81
2022/12/10 07:16:40;;;;;;;130.27;49.90;;;;;;;;;;5017603;28;20191;-81
2022/12/10 07:19:06;;;;;;;139.90;51.20;;;;;;;;;;5013523;28;20184;-82
2022/12/10 07:21:33;;;;;;;147.27;51.23;;;;;;;;;;5011152;28;20196;-81
2022/12/10 07:24:01;;;;;;;152.27;48.77;;;;;;;;;;5029125;28;20196;-81
2022/12/10 07:26:32;;;;;;;203.57;49.50;;;;;;;;;;5033373;28;20215;-81
2022/12/10 07:28:59;;;;;;;301.20;46.57;;;;;;;;;;5017314;28;20189;-81
2022/12/10 07:31:26;;;;;;;399.93;49.57;;;;;;;;;;5034959;28;20257;-81
2022/12/10 07:33:52;;;;;;;309.37;46.67;;;;;;;;;;5034062;28;20184;-81
2022/12/10 07:36:19;;;;;;;421.13;75.78;;;;;;;;;;5000385;28;20421;-80
2022/12/10 07:38:45;;;;;;;381.40;54.47;;;;;;;;;;5034861;28;20179;-80
2022/12/10 07:41:12;;;;;;;432.97;55.87;;;;;;;;;;5017366;28;20182;-80
2022/12/10 07:43:39;;;;;;;389.00;53.37;;;;;;;;;;5034855;28;20180;-80
2022/12/10 07:46:11;;;;;;;379.27;54.00;;;;;;;;;;5034557;28;20344;-80
2022/12/10 07:48:38;;;;;;;282.43;52.57;;;;;;;;;;5017283;28;20177;-80
2022/12/10 07:51:04;;;;;;;254.43;51.90;;;;;;;;;;5017148;28;20271;-80
2022/12/10 07:53:31;;;;;;;329.80;53.70;;;;;;;;;;5034503;28;20174;-80
2022/12/10 07:55:57;;;;;;;243.63;53.13;;;;;;;;;;5018684;28;20238;-80
2022/12/10 07:58:23;;;;;;;196.97;53.83;;;;;;;;;;5034630;28;20176;-80
2022/12/10 08:00:49;;;;;;;183.40;53.37;;;;;;;;;;5033203;28;20173;-80
2022/12/10 08:03:15;;;;;;;218.90;53.53;;;;;;;;;;5016768;28;20188;-80
2022/12/10 08:05:41;;;;;;;220.83;51.00;;;;;;;;;;5017031;28;20181;-80
2022/12/10 08:08:07;;;;;;;285.73;52.13;;;;;;;;;;5033446;28;20294;-80
2022/12/10 08:10:36;;;;;;;246.10;55.27;;;;;;;;;;5016813;28;20184;-80
2022/12/10 08:13:03;;;;;;;200.33;52.20;;;;;;;;;;5016838;28;20180;-80
2022/12/10 08:15:29;;;;;;;186.73;53.63;;;;;;;;;;5016832;28;20178;-80
2022/12/10 08:17:55;;;;;;;177.37;51.80;;;;;;;;;;5016833;28;20279;-80
2022/12/10 08:20:21;;;;;;;188.67;54.93;;;;;;;;;;5017247;28;20187;-80
2022/12/10 08:22:47;;;;;;;187.37;52.37;;;;;;;;;;5017258;28;20195;-80
2022/12/10 08:25:13;;;;;;;187.90;53.00;;;;;;;;;;5016440;28;20275;-80
2022/12/10 08:27:40;;;;;;;159.43;49.10;;;;;;;;;;5000717;28;20310;-80
2022/12/10 08:30:06;;;;;;;170.80;48.53;;;;;;;;;;5016887;28;20188;-80
2022/12/10 08:32:32;;;;;;;180.50;51.00;;;;;;;;;;5013027;28;20264;-80
2022/12/10 08:34:58;;;;;;;196.63;51.67;;;;;;;;;;5014628;28;20223;-80
2022/12/10 08:37:24;;;;;;;176.30;50.63;;;;;;;;;;5005878;28;20182;-80
2022/12/10 08:39:50;;;;;;;178.83;51.10;;;;;;;;;;4993609;28;20194;-81
2022/12/10 08:42:16;;;;;;;180.23;50.40;;;;;;;;;;4994762;28;20233;-81
2022/12/10 08:44:42;;;;;;;187.80;51.77;;;;;;;;;;4994659;28;20186;-82
2022/12/10 08:47:08;;;;;;;193.90;51.13;;;;;;;;;;5013077;28;20212;-81
2022/12/10 08:49:34;;;;;;;169.70;49.53;;;;;;;;;;5013180;28;20181;-82
2022/12/10 08:52:00;;;;;;;165.80;47.43;;;;;;;;;;5014221;28;20181;-82
2022/12/10 08:54:26;;;;;;;165.40;48.30;;;;;;;;;;5013008;28;20187;-81
2022/12/10 08:56:52;;;;;;;155.17;47.87;;;;;;;;;;4996712;28;20189;-80
2022/12/10 08:59:18;;;;;;;165.10;50.33;;;;;;;;;;5014190;28;20186;-81
2022/12/10 09:01:44;;;;;;;163.87;48.60;;;;;;;;;;5014157;28;20183;-81
2022/12/10 09:04:12;;;;;;;160.03;48.93;;;;;;;;;;4996898;28;20191;-81
2022/12/10 09:06:38;;;;;;;163.67;47.87;;;;;;;;;;4997006;28;20251;-81
2022/12/10 09:09:04;;;;;;;159.80;47.90;;;;;;;;;;4997091;28;20181;-81
2022/12/10 09:11:31;;;;;;;157.20;49.47;;;;;;;;;;5013043;28;20221;-81
2022/12/10 09:13:58;;;;;;;145.13;46.73;;;;;;;;;;5014024;28;20177;-81
2022/12/10 09:16:34;;;;;;;150.40;48.83;;;;;;;;;;5015593;28;20184;-81
2022/12/10 09:19:01;;;;;;;147.23;48.03;;;;;;;;;;5017738;28;20232;-81
2022/12/10 09:21:28;;;;;;;153.77;46.70;;;;;;;;;;5000515;28;20236;-81
2022/12/10 09:23:54;;;;;;;147.27;46.37;;;;;;;;;;5016574;28;20182;-81
2022/12/10 09:26:21;;;;;;;143.43;46.73;;;;;;;;;;5016670;28;20219;-80
2022/12/10 09:28:47;;;;;;;183.65;67.05;;;;;;;;;;5016957;28;20409;-80
2022/12/10 09:31:14;;;;;;;158.27;51.80;;;;;;;;;;5017524;28;20227;-80
2022/12/10 09:33:40;;;;;;;149.40;48.77;;;;;;;;;;5016607;28;20259;-80
2022/12/10 09:36:08;;;;;;;144.13;48.93;;;;;;;;;;5004274;28;20194;-80
2022/12/10 09:38:34;;;;;;;152.30;44.23;;;;;;;;;;4978342;28;20178;-80
2022/12/10 09:41:02;;;;;;;164.87;44.70;;;;;;;;;;4977517;28;20176;-80
2022/12/10 09:43:51;;;;;;;164.23;45.53;;;;;;;;;;4977448;28;20189;-80
2022/12/10 09:46:20;;;;;;;179.10;41.83;;;;;;;;;;4980261;28;20227;-80
2022/12/10 09:49:16;;;;;;;172.33;42.87;;;;;;;;;;4978153;28;20186;-80
2022/12/10 09:51:42;;;;;;;162.80;42.50;;;;;;;;;;4980649;28;20205;-80
2022/12/10 09:54:28;;;;;;;233.87;44.47;;;;;;;;;;4978779;28;20286;-80
2022/12/10 09:56:56;;;;;;;165.50;43.10;;;;;;;;;;4976811;28;20180;-80
2022/12/10 09:59:33;;;;;;;208.97;41.27;;;;;;;;;;4978006;28;20202;-80
2022/12/10 10:02:23;;;;;;;202.30;45.83;;;;;;;;;;4993218;28;20182;-80
2022/12/10 10:04:50;;;;;;;208.40;43.90;;;;;;;;;;4974993;28;20195;-80
2022/12/10 10:07:24;;;;;;;169.00;40.23;;;;;;;;;;4992756;28;20269;-80
2022/12/10 10:09:51;;;;;;;230.37;45.13;;;;;;;;;;4977861;28;20198;-80
2022/12/10 10:12:17;;;;;;;222.90;46.33;;;;;;;;;;4997828;28;20213;-81
2022/12/10 10:14:44;;;;;;;194.63;48.23;;;;;;;;;;4996228;28;20181;-81
2022/12/10 10:17:27;;;;;;;193.03;46.27;;;;;;;;;;4980028;28;20186;-81
2022/12/10 10:19:53;;;;;;;181.50;47.13;;;;;;;;;;4996432;28;20246;-81
2022/12/10 10:22:20;;;;;;;206.80;47.40;;;;;;;;;;4979749;28;20190;-81
2022/12/10 10:24:46;;;;;;;199.40;47.97;;;;;;;;;;4997024;28;20182;-81
2022/12/10 10:27:15;;;;;;;182.17;47.67;;;;;;;;;;4996833;28;20292;-81
2022/12/10 10:29:42;;;;;;;244.33;49.90;;;;;;;;;;4977971;28;20190;-81
2022/12/10 10:32:30;;;;;;;193.93;47.93;;;;;;;;;;4984486;28;20318;-81
2022/12/10 10:34:58;;;;;;;202.10;50.67;;;;;;;;;;4998986;28;20180;-81
2022/12/10 10:37:29;;;;;;;193.53;49.20;;;;;;;;;;4999208;28;20181;-81
2022/12/10 10:39:56;;;;;;;196.43;47.47;;;;;;;;;;4999312;28;20192;-81
2022/12/10 10:42:42;;;;;;;195.50;49.03;;;;;;;;;;4982926;28;20194;-81
2022/12/10 10:45:27;;;;;;;198.77;49.53;;;;;;;;;;5019070;28;20191;-81
2022/12/10 10:48:04;;;;;;;199.63;49.10;;;;;;;;;;5033005;28;20218;-81
2022/12/10 10:50:30;;;;;;;200.77;50.03;;;;;;;;;;5018088;28;20173;-81
2022/12/10 10:52:56;;;;;;;196.00;50.00;;;;;;;;;;5035699;28;20177;-81
2022/12/10 10:55:36;;;;;;;205.40;48.63;;;;;;;;;;5035689;28;20192;-82
2022/12/10 10:58:01;;;;;;;201.13;50.93;;;;;;;;;;5018157;28;20191;-82
2022/12/10 11:00:28;;;;;;;199.60;49.30;;;;;;;;;;5017934;28;20196;-82
2022/12/10 11:02:54;;;;;;;190.53;50.97;;;;;;;;;;5018091;28;20181;-82
2022/12/10 11:05:20;;;;;;;189.83;49.57;;;;;;;;;;5034230;28;20186;-82
2022/12/10 11:07:46;;;;;;;199.57;50.17;;;;;;;;;;5027515;28;20203;-82
2022/12/10 11:10:22;;;;;;;198.87;49.43;;;;;;;;;;5040332;28;20181;-82
2022/12/10 11:13:18;;;;;;;183.23;50.37;;;;;;;;;;5034630;28;20172;-82
2022/12/10 11:15:44;;;;;;;197.83;50.57;;;;;;;;;;5020082;28;20181;-82
2022/12/10 11:18:29;;;;;;;206.50;52.60;;;;;;;;;;5017599;28;20246;-82
2022/12/10 11:20:58;;;;;;;195.40;49.00;;;;;;;;;;5034853;28;20180;-82
2022/12/10 11:23:27;;;;;;;187.07;48.00;;;;;;;;;;5017048;28;20188;-82
2022/12/10 11:25:53;;;;;;;242.20;73.72;;;;;;;;;;5012756;28;20508;-82
2022/12/10 11:28:19;;;;;;;204.63;54.57;;;;;;;;;;5016806;28;20260;-82
2022/12/10 11:30:51;;;;;;;201.00;53.07;;;;;;;;;;5016494;28;20180;-82
2022/12/10 11:33:36;;;;;;;241.70;49.87;;;;;;;;;;5033742;28;20303;-82
2022/12/10 11:36:11;;;;;;;185.03;50.33;;;;;;;;;;5017110;28;20184;-82
2022/12/10 11:38:37;;;;;;;175.23;46.53;;;;;;;;;;5016486;28;20196;-82
2022/12/10 11:41:16;;;;;;;179.60;48.27;;;;;;;;;;5017135;28;20176;-82
2022/12/10 11:44:08;;;;;;;182.20;46.93;;;;;;;;;;5012278;28;20185;-81
2022/12/10 11:46:44;;;;;;;186.50;46.07;;;;;;;;;;5008905;23;20268;-80
2022/12/10 11:49:18;;;;;;;183.60;47.87;;;;;;;;;;4995146;28;20174;-80
2022/12/10 11:51:47;;;;;;;244.23;48.63;;;;;;;;;;4993928;28;20177;-80
2022/12/10 11:54:32;;;;;;;186.27;48.03;;;;;;;;;;4994023;28;20182;-80
2022/12/10 11:57:14;;;;;;;185.23;47.77;;;;;;;;;;4995037;28;20232;-80
2022/12/10 11:59:58;;;;;;;191.40;48.30;;;;;;;;;;4993783;28;20184;-82
2022/12/10 12:02:42;;;;;;;188.80;47.37;;;;;;;;;;4993807;28;20262;-82
2022/12/10 12:05:17;;;;;;;178.67;47.40;;;;;;;;;;4993667;28;20185;-82
2022/12/10 12:07:55;;;;;;;179.60;46.63;;;;;;;;;;4989959;28;20302;-80
2022/12/10 12:10:21;;;;;;;256.10;48.57;;;;;;;;;;4992597;28;20236;-80
2022/12/10 12:12:56;;;;;;;219.70;48.97;;;;;;;;;;4993690;28;20190;-80
2022/12/10 12:15:25;;;;;;;199.20;48.37;;;;;;;;;;4991950;28;20250;-80
2022/12/10 12:18:20;;;;;;;258.83;48.50;;;;;;;;;;4974312;28;20186;-81
2022/12/10 12:20:55;;;;;;;244.97;51.03;;;;;;;;;;4973070;28;20194;-81
2022/12/10 12:23:30;;;;;;;172.93;46.93;;;;;;;;;;4980708;28;20196;-81
2022/12/10 12:25:58;;;;;;;196.93;48.33;;;;;;;;;;4992540;28;20191;-81
2022/12/10 12:28:35;;;;;;;191.97;45.17;;;;;;;;;;4993633;28;20265;-82
2022/12/10 12:31:17;;;;;;;151.77;43.80;;;;;;;;;;4992972;28;20178;-81
2022/12/10 12:33:47;;;;;;;220.47;46.00;;;;;;;;;;4994564;28;20197;-81
2022/12/10 12:36:16;;;;;;;200.63;43.43;;;;;;;;;;4993343;28;20193;-81
2022/12/10 12:38:50;;;;;;;130.77;39.27;;;;;;;;;;4992639;28;20192;-82
2022/12/10 12:41:21;;;;;;;138.57;40.40;;;;;;;;;;4974819;28;20196;-81
2022/12/10 12:43:50;;;;;;;177.80;40.93;;;;;;;;;;5008273;28;20289;-81
2022/12/10 12:46:21;;;;;;;193.67;42.50;;;;;;;;;;5012522;28;20276;-81
2022/12/10 12:48:53;;;;;;;142.60;42.07;;;;;;;;;;4991793;28;20188;-81
2022/12/10 12:51:38;;;;;;;155.13;40.77;;;;;;;;;;4995685;28;20162;-81
2022/12/10 12:54:04;;;;;;;139.63;41.83;;;;;;;;;;4996669;28;20204;-81
2022/12/10 12:56:36;;;;;;;170.37;43.60;;;;;;;;;;5013433;28;20185;-81
2022/12/10 12:59:22;;;;;;;139.90;39.87;;;;;;;;;;4978670;28;20258;-81
2022/12/10 13:01:58;;;;;;;108.57;34.97;;;;;;;;;;4971162;28;20229;-81
2022/12/10 13:04:24;;;;;;;104.80;36.27;;;;;;;;;;4997461;28;20212;-81
2022/12/10 13:07:09;;;;;;;136.80;38.73;;;;;;;;;;4996542;28;20300;-81
2022/12/10 13:09:43;;;;;;;161.70;40.43;;;;;;;;;;4998332;28;20181;-81
2022/12/10 13:12:14;;;;;;;127.47;38.90;;;;;;;;;;4998041;28;20241;-81
2022/12/10 13:14:51;;;;;;;140.17;41.17;;;;;;;;;;4996196;28;20228;-81
2022/12/10 13:17:34;;;;;;;137.07;40.30;;;;;;;;;;4994218;28;20336;-81
2022/12/10 13:20:18;;;;;;;130.27;39.57;;;;;;;;;;4997286;28;20181;-81
2022/12/10 13:22:55;;;;;;;231.83;38.93;;;;;;;;;;4997714;28;20193;-81
2022/12/10 13:25:37;;;;;;;245.43;42.03;;;;;;;;;;4998384;28;20178;-82
2022/12/10 13:28:17;;;;;;;205.37;42.33;;;;;;;;;;4995818;28;20589;-81
2022/12/10 13:30:43;;;;;;;175.90;41.67;;;;;;;;;;4997253;28;20243;-82
2022/12/10 13:33:20;;;;;;;233.07;42.00;;;;;;;;;;4996810;28;20184;-82
2022/12/10 13:35:51;;;;;;;220.33;41.30;;;;;;;;;;4997614;28;20197;-82
2022/12/10 13:38:19;;;;;;;215.40;45.07;;;;;;;;;;4995282;28;20193;-82
2022/12/10 13:46:29;;;;;;;141.17;36.80;;;;;;;;;;4996666;28;20236;-83
2022/12/10 13:48:55;;;;;;;259.57;44.20;;;;;;;;;;4996988;28;20182;-82
2022/12/10 13:51:26;;;;;;;244.30;43.50;;;;;;;;;;4979432;28;20182;-82
2022/12/10 13:53:57;;;;;;;272.50;44.53;;;;;;;;;;4990264;28;20182;-82
2022/12/10 13:56:29;;;;;;;214.60;39.57;;;;;;;;;;4976670;28;20193;-81
2022/12/10 13:59:01;;;;;;;213.60;44.83;;;;;;;;;;4994663;28;20197;-81
2022/12/10 14:01:43;;;;;;;216.83;43.70;;;;;;;;;;4994871;28;20190;-81
2022/12/10 14:04:27;;;;;;;304.87;47.30;;;;;;;;;;4996046;28;20194;-81
2022/12/10 14:06:53;;;;;;;298.47;46.53;;;;;;;;;;4995333;28;20209;-81
2022/12/10 14:09:20;;;;;;;249.30;46.70;;;;;;;;;;4979366;28;20198;-80
2022/12/10 14:12:06;;;;;;;323.87;46.07;;;;;;;;;;4996898;28;20206;-80
2022/12/10 14:14:34;;;;;;;206.60;43.07;;;;;;;;;;4996484;28;20186;-81
2022/12/10 14:17:01;;;;;;;190.37;43.97;;;;;;;;;;4995831;28;20244;-81
2022/12/10 14:19:28;;;;;;;201.43;46.77;;;;;;;;;;4992039;28;20281;-81
2022/12/10 14:21:55;;;;;;;413.60;47.27;;;;;;;;;;4967847;28;20200;-81
2022/12/10 14:24:36;;;;;;;388.60;45.83;;;;;;;;;;4992894;28;20213;-81
2022/12/10 14:27:15;;;;;;;347.37;44.77;;;;;;;;;;4995461;28;20216;-81
2022/12/10 14:29:48;;;;;;;233.13;40.73;;;;;;;;;;4995388;28;20178;-81
2022/12/10 14:32:16;;;;;;;200.33;42.27;;;;;;;;;;4990898;28;20226;-81
2022/12/10 14:34:42;;;;;;;266.30;44.00;;;;;;;;;;5003374;28;20278;-81
2022/12/10 14:37:13;;;;;;;333.80;45.77;;;;;;;;;;4994418;28;20186;-81